createdAt,value
2023-10-09T00:01:53.215Z,19.85
2023-10-09T00:04:26.141Z,18.63
2023-10-09T00:07:00.780Z,15.45
2023-10-09T00:09:34.751Z,19.45
2023-10-09T00:12:11.555Z,15.88
2023-10-09T00:14:49.048Z,15.43
2023-10-09T00:17:32.194Z,18.33
2023-10-09T00:22:52.402Z,22.02
2023-10-09T00:25:30.958Z,17.20
2023-10-09T00:28:06.820Z,14.23
2023-10-09T00:30:42.620Z,15.73
2023-10-09T00:33:17.025Z,15.43
2023-10-09T00:35:55.635Z,20.35
2023-10-09T00:38:34.826Z,14.18
2023-10-09T00:41:20.562Z,22.20
2023-10-09T00:43:54.136Z,15.35
2023-10-09T00:46:29.017Z,16.23
2023-10-09T00:49:03.045Z,17.27
2023-10-09T00:51:43.460Z,18.02
2023-10-09T00:54:16.849Z,17.35
2023-10-09T00:56:58.513Z,15.18
2023-10-09T00:59:32.926Z,19.77
2023-10-09T01:02:06.291Z,22.83
2023-10-09T01:04:42.530Z,16.75
2023-10-09T01:07:22.432Z,15.23
2023-10-09T01:09:56.646Z,16.77
2023-10-09T01:12:30.284Z,15.80
2023-10-09T01:15:07.222Z,14.75
2023-10-09T01:17:46.469Z,16.67
2023-10-09T01:20:31.202Z,16.42
2023-10-09T01:23:04.295Z,15.75
2023-10-09T01:25:45.178Z,15.38
2023-10-09T01:28:17.857Z,16.10
2023-10-09T01:30:52.489Z,17.85
2023-10-09T01:33:26.480Z,15.85
2023-10-09T01:36:02.188Z,11.68
2023-10-09T01:41:21.139Z,15.95
2023-10-09T01:44:01.780Z,16.27
2023-10-09T01:46:34.818Z,12.65
2023-10-09T01:49:17.715Z,17.52
2023-10-09T01:51:51.593Z,15.85
2023-10-09T01:54:44.507Z,14.25
2023-10-09T01:57:25.103Z,16.05
2023-10-09T01:59:59.108Z,13.88
2023-10-09T02:02:35.092Z,14.38
2023-10-09T02:05:25.644Z,17.30
2023-10-09T02:07:59.562Z,13.60
2023-10-09T02:10:33.173Z,14.30
2023-10-09T02:13:08.609Z,12.98
2023-10-09T02:15:45.123Z,15.70
2023-10-09T02:18:22.862Z,16.52
2023-10-09T02:21:01.365Z,13.48
2023-10-09T02:23:45.520Z,15.88
2023-10-09T02:26:27.153Z,13.68
2023-10-09T02:29:01.063Z,22.02
2023-10-09T02:31:37.554Z,11.35
2023-10-09T02:34:12.009Z,14.40
2023-10-09T02:36:50.001Z,16.85
2023-10-09T02:39:26.281Z,15.60
2023-10-09T02:42:08.646Z,17.73
2023-10-09T02:44:47.287Z,15.98
2023-10-09T02:47:30.631Z,15.13
2023-10-09T02:50:08.874Z,16.02
2023-10-09T02:52:42.002Z,18.83
2023-10-09T02:55:24.806Z,23.13
2023-10-09T02:58:06.117Z,14.38
2023-10-09T03:00:38.896Z,13.10
2023-10-09T03:03:11.545Z,14.52
2023-10-09T03:05:45.031Z,13.68
2023-10-09T03:08:20.408Z,13.88
2023-10-09T03:10:53.083Z,13.70
2023-10-09T03:13:25.890Z,14.77
2023-10-09T03:15:58.535Z,15.48
2023-10-09T03:18:31.316Z,17.50
2023-10-09T03:21:04.265Z,21.23
2023-10-09T03:23:36.896Z,17.05
2023-10-09T03:26:20.925Z,12.93
2023-10-09T03:28:54.879Z,17.80
2023-10-09T03:31:28.828Z,15.63
2023-10-09T03:34:01.638Z,14.45
2023-10-09T03:36:39.052Z,13.90
2023-10-09T03:39:30.126Z,12.73
2023-10-09T03:42:06.748Z,15.82
2023-10-09T03:44:45.290Z,14.57
2023-10-09T03:47:17.934Z,11.50
2023-10-09T03:49:52.804Z,15.77
2023-10-09T03:52:28.675Z,14.93
2023-10-09T03:55:11.648Z,15.02
2023-10-09T03:57:46.648Z,17.10
2023-10-09T04:00:29.370Z,14.77
2023-10-09T04:03:02.515Z,14.07
2023-10-09T04:05:35.208Z,13.93
2023-10-09T04:08:17.581Z,16.80
2023-10-09T04:10:55.885Z,14.52
2023-10-09T04:13:36.022Z,12.75
2023-10-09T04:16:27.943Z,14.05
2023-10-09T04:19:07.988Z,15.73
2023-10-09T04:21:42.979Z,16.40
2023-10-09T04:24:16.092Z,14.02
2023-10-09T04:26:57.326Z,16.90
2023-10-09T04:29:38.642Z,16.88
2023-10-09T04:32:19.259Z,15.48
2023-10-09T04:35:18.543Z,13.15
2023-10-09T04:38:04.449Z,17.77
2023-10-09T04:40:49.913Z,18.60
2023-10-09T04:43:22.669Z,13.68
2023-10-09T04:46:09.356Z,21.90
2023-10-09T04:48:46.991Z,14.07
2023-10-09T04:51:23.146Z,15.57
2023-10-09T04:54:14.038Z,15.05
2023-10-09T04:56:53.011Z,15.30
2023-10-09T04:59:26.489Z,17.85
2023-10-09T05:02:00.053Z,14.07
2023-10-09T05:04:38.923Z,16.88
2023-10-09T05:07:46.621Z,14.45
2023-10-09T05:10:25.285Z,19.55
2023-10-09T05:12:58.079Z,14.32
2023-10-09T05:15:31.209Z,13.45
2023-10-09T05:18:10.617Z,14.63
2023-10-09T05:21:18.765Z,17.67
2023-10-09T05:26:49.989Z,15.07
2023-10-09T05:29:33.586Z,15.88
2023-10-09T05:32:13.507Z,16.23
2023-10-09T05:35:01.811Z,15.60
2023-10-09T05:40:09.138Z,15.95
2023-10-09T05:42:45.173Z,18.33
2023-10-09T05:45:20.464Z,19.73
2023-10-09T05:47:57.414Z,16.77
2023-10-09T05:50:34.180Z,18.38
2023-10-09T05:53:08.981Z,18.35
2023-10-09T05:56:00.416Z,18.30
2023-10-09T05:58:51.872Z,16.73
2023-10-09T06:01:43.292Z,17.33
2023-10-09T06:04:20.312Z,18.75
2023-10-09T06:07:01.894Z,15.02
2023-10-09T06:09:50.919Z,16.10
2023-10-09T06:12:33.471Z,14.50
2023-10-09T06:15:25.569Z,19.67
2023-10-09T06:18:18.308Z,16.75
2023-10-09T06:21:06.288Z,20.20
2023-10-09T06:24:01.909Z,17.98
2023-10-09T06:26:34.893Z,17.38
2023-10-09T06:29:17.690Z,20.00
2023-10-09T06:32:00.334Z,20.15
2023-10-09T06:34:36.920Z,18.45
2023-10-09T06:37:35.513Z,17.55
2023-10-09T06:40:29.571Z,15.73
2023-10-09T06:43:08.402Z,16.02
2023-10-09T06:45:47.390Z,18.80
2023-10-09T06:48:35.582Z,18.10
2023-10-09T06:51:26.596Z,17.35
2023-10-09T06:54:05.376Z,18.83
2023-10-09T06:56:38.027Z,21.77
2023-10-09T06:59:33.533Z,19.50
2023-10-09T07:02:10.697Z,20.08
2023-10-09T07:04:43.542Z,20.27
2023-10-09T07:07:21.992Z,24.73
2023-10-09T07:10:13.174Z,20.02
2023-10-09T07:12:46.449Z,17.60
2023-10-09T07:15:37.892Z,19.60
2023-10-09T07:18:24.793Z,19.30
2023-10-09T07:21:00.721Z,15.38
2023-10-09T07:23:34.292Z,21.35
2023-10-09T07:26:19.833Z,21.13
2023-10-09T07:29:01.654Z,21.77
2023-10-09T07:31:41.187Z,18.23
2023-10-09T07:34:32.985Z,18.48
2023-10-09T07:37:05.750Z,21.08
2023-10-09T07:39:39.673Z,17.13
2023-10-09T07:42:34.759Z,19.50
2023-10-09T07:45:35.218Z,17.85
2023-10-09T07:48:15.791Z,18.17
2023-10-09T07:50:58.439Z,16.20
2023-10-09T07:53:44.271Z,20.58
2023-10-09T07:56:21.893Z,19.10
2023-10-09T07:58:54.636Z,19.83
2023-10-09T08:01:36.980Z,17.23
2023-10-09T08:04:13.011Z,16.08
2023-10-09T08:07:04.269Z,22.70
2023-10-09T08:09:48.397Z,18.38
2023-10-09T08:12:40.054Z,19.95
2023-10-09T08:15:22.692Z,18.63
2023-10-09T08:18:00.471Z,18.08
2023-10-09T08:20:52.384Z,19.40
2023-10-09T08:23:34.769Z,19.50
2023-10-09T08:26:29.382Z,17.15
2023-10-09T08:29:18.912Z,21.75
2023-10-09T08:31:59.095Z,18.27
2023-10-09T08:37:26.306Z,17.63
2023-10-09T08:39:59.981Z,23.33
2023-10-09T08:42:32.753Z,20.50
2023-10-09T08:45:08.931Z,20.50
2023-10-09T08:47:42.549Z,21.33
2023-10-09T08:50:16.132Z,21.02
2023-10-09T08:52:52.580Z,17.92
2023-10-09T08:55:25.281Z,21.00
2023-10-09T08:58:00.643Z,21.08
2023-10-09T09:00:34.399Z,21.27
2023-10-09T09:03:07.270Z,19.50
2023-10-09T09:05:39.936Z,21.98
2023-10-09T09:08:26.972Z,20.45
2023-10-09T09:11:24.057Z,21.83
2023-10-09T09:14:00.177Z,21.35
2023-10-09T09:16:37.656Z,24.63
2023-10-09T09:19:10.659Z,24.35
2023-10-09T09:21:55.986Z,19.60
2023-10-09T09:24:32.159Z,22.83
2023-10-09T09:27:32.537Z,20.13
2023-10-09T09:30:24.864Z,20.45
2023-10-09T09:33:26.683Z,20.35
2023-10-09T09:36:05.876Z,21.90
2023-10-09T09:38:51.653Z,19.67
2023-10-09T09:41:27.407Z,21.88
2023-10-09T09:44:05.390Z,18.30
2023-10-09T09:46:40.881Z,21.40
2023-10-09T09:49:18.024Z,18.35
2023-10-09T09:51:50.901Z,23.45
2023-10-09T09:54:27.798Z,17.48
2023-10-09T09:57:09.573Z,20.85
2023-10-09T09:59:51.069Z,17.65
2023-10-09T10:02:34.736Z,21.02
2023-10-09T10:05:13.135Z,18.90
2023-10-09T10:07:50.620Z,20.27
2023-10-09T10:10:59.547Z,22.40
2023-10-09T10:13:48.779Z,21.95
2023-10-09T10:16:21.732Z,20.23
2023-10-09T10:19:08.923Z,18.58
2023-10-09T10:21:43.041Z,19.92
2023-10-09T10:24:31.679Z,25.73
2023-10-09T10:27:25.382Z,26.65
2023-10-09T10:30:14.086Z,27.33
2023-10-09T10:32:52.810Z,20.13
2023-10-09T10:35:45.931Z,28.98
2023-10-09T10:38:26.654Z,30.23
2023-10-09T10:41:20.221Z,22.55
2023-10-09T10:43:52.902Z,24.95
2023-10-09T10:46:31.556Z,18.55
2023-10-09T10:49:17.810Z,20.55
2023-10-09T10:51:59.861Z,25.52
2023-10-09T10:54:32.515Z,19.98
2023-10-09T10:57:29.861Z,27.08
2023-10-09T11:00:15.127Z,22.85
2023-10-09T11:02:49.581Z,27.15
2023-10-09T11:05:27.328Z,21.25
2023-10-09T11:08:02.247Z,27.92
2023-10-09T11:10:35.084Z,28.23
2023-10-09T11:13:07.698Z,28.00
2023-10-09T11:15:58.847Z,23.30
2023-10-09T11:18:31.529Z,21.15
2023-10-09T11:21:04.526Z,29.67
2023-10-09T11:23:40.221Z,19.60
2023-10-09T11:26:25.383Z,19.05
2023-10-09T11:29:41.026Z,26.05
2023-10-09T11:32:26.612Z,24.33
2023-10-09T11:35:21.765Z,23.17
2023-10-09T11:37:58.614Z,24.15
2023-10-09T11:40:49.518Z,23.52
2023-10-09T11:43:42.232Z,20.70
2023-10-09T11:46:23.940Z,21.75
2023-10-09T11:52:15.577Z,27.83
2023-10-09T11:54:50.573Z,19.45
2023-10-09T11:57:31.351Z,17.58
2023-10-09T12:00:32.482Z,17.30
2023-10-09T12:03:06.538Z,15.88
2023-10-09T12:05:43.715Z,15.90
2023-10-09T12:08:17.683Z,15.20
2023-10-09T12:10:50.353Z,14.32
2023-10-09T12:13:24.381Z,17.42
2023-10-09T12:15:58.969Z,12.07
2023-10-09T12:18:35.871Z,13.82
2023-10-09T12:21:08.702Z,13.98
2023-10-09T12:23:42.290Z,13.95
2023-10-09T12:26:17.823Z,15.52
2023-10-09T12:28:51.421Z,16.45
2023-10-09T12:31:26.093Z,11.65
2023-10-09T12:34:00.316Z,15.88
2023-10-09T12:36:38.747Z,11.20
2023-10-09T12:39:18.825Z,15.93
2023-10-09T12:41:54.735Z,12.38
2023-10-09T12:44:28.344Z,10.55
2023-10-09T12:47:05.867Z,13.55
2023-10-09T12:49:42.197Z,11.02
2023-10-09T12:52:18.052Z,12.40
2023-10-09T12:54:50.834Z,11.82
2023-10-09T12:57:24.952Z,11.52
2023-10-09T12:59:57.572Z,11.10
2023-10-09T13:02:32.091Z,12.02
2023-10-09T13:05:06.859Z,13.65
2023-10-09T13:07:39.523Z,6.88
2023-10-09T13:10:13.748Z,12.02
2023-10-09T13:12:46.816Z,10.85
2023-10-09T13:15:22.044Z,14.73
2023-10-09T13:20:28.794Z,12.73
2023-10-09T13:23:02.547Z,15.90
2023-10-09T13:25:40.766Z,15.45
2023-10-09T13:28:21.815Z,13.18
2023-10-09T13:30:54.467Z,17.50
2023-10-09T13:33:29.286Z,11.20
2023-10-09T13:36:01.965Z,10.45
2023-10-09T13:38:34.638Z,10.43
2023-10-09T13:41:08.465Z,7.88
2023-10-09T13:43:42.329Z,13.40
2023-10-09T13:46:18.753Z,14.60
2023-10-09T13:48:53.774Z,12.35
2023-10-09T13:51:26.374Z,11.30
2023-10-09T13:53:59.154Z,9.35
2023-10-09T13:56:31.795Z,10.45
2023-10-09T13:59:05.009Z,11.32
2023-10-09T14:01:40.266Z,10.73
2023-10-09T14:04:19.283Z,12.38
2023-10-09T14:06:58.136Z,12.05
2023-10-09T14:09:45.920Z,13.80
2023-10-09T14:12:20.445Z,15.02
2023-10-09T14:14:55.181Z,9.45
2023-10-09T14:17:30.231Z,10.68
2023-10-09T14:20:23.054Z,12.02
2023-10-09T14:22:55.744Z,10.63
2023-10-09T14:25:31.188Z,8.75
2023-10-09T14:28:11.064Z,14.52
2023-10-09T14:30:43.755Z,10.60
2023-10-09T14:33:23.818Z,7.53
2023-10-09T14:35:56.765Z,7.35
2023-10-09T14:38:33.392Z,14.25
2023-10-09T14:41:12.615Z,10.85
2023-10-09T14:43:45.817Z,7.65
2023-10-09T14:46:24.352Z,7.50
2023-10-09T14:48:57.123Z,6.20
2023-10-09T14:51:30.674Z,6.95
2023-10-09T14:54:03.382Z,17.48
2023-10-09T14:56:38.036Z,9.02
2023-10-09T14:59:12.255Z,7.82
2023-10-09T15:01:46.208Z,8.65
2023-10-09T15:04:19.095Z,8.50
2023-10-09T15:06:52.369Z,8.95
2023-10-09T15:09:29.312Z,11.07
2023-10-09T15:12:02.240Z,6.25
2023-10-09T15:14:35.194Z,7.22
2023-10-09T15:17:09.334Z,11.43
2023-10-09T15:19:42.057Z,7.65
2023-10-09T15:22:15.384Z,7.13
2023-10-09T15:24:48.039Z,9.38
2023-10-09T15:27:20.642Z,9.02
2023-10-09T15:29:54.635Z,12.23
2023-10-09T15:32:27.274Z,11.40
2023-10-09T15:34:59.987Z,10.50
2023-10-09T15:37:32.768Z,9.10
2023-10-09T15:40:15.510Z,10.35
2023-10-09T15:42:50.981Z,11.27
2023-10-09T15:45:25.400Z,9.38
2023-10-09T15:48:00.482Z,8.95
2023-10-09T15:50:35.445Z,7.15
2023-10-09T15:53:09.114Z,10.32
2023-10-09T15:55:41.876Z,7.95
2023-10-09T15:58:16.314Z,10.98
2023-10-09T16:00:49.032Z,9.13
2023-10-09T16:03:21.753Z,10.18
2023-10-09T16:05:54.529Z,9.50
2023-10-09T16:08:27.727Z,10.85
2023-10-09T16:11:00.450Z,8.82
2023-10-09T16:13:33.846Z,10.48
2023-10-09T16:16:09.903Z,11.85
2023-10-09T16:18:42.700Z,9.52
2023-10-09T16:21:16.244Z,9.05
2023-10-09T16:23:50.791Z,10.88
2023-10-09T16:26:25.488Z,9.85
2023-10-09T16:29:00.820Z,10.10
2023-10-09T16:31:39.677Z,8.82
2023-10-09T16:34:15.875Z,10.48
2023-10-09T16:39:23.883Z,8.95
2023-10-09T16:44:37.737Z,11.75
2023-10-09T16:47:12.524Z,12.82
2023-10-09T16:49:50.276Z,11.32
2023-10-09T16:52:24.398Z,13.50
2023-10-09T16:54:57.006Z,8.13
2023-10-09T16:57:29.854Z,13.07
2023-10-09T17:00:03.546Z,6.25
2023-10-09T17:02:39.540Z,9.07
2023-10-09T17:05:13.917Z,10.02
2023-10-09T17:07:46.650Z,9.90
2023-10-09T17:10:20.878Z,12.95
2023-10-09T17:12:54.470Z,13.38
2023-10-09T17:15:34.045Z,13.73
2023-10-09T17:18:08.771Z,10.70
2023-10-09T17:20:49.681Z,10.45
2023-10-09T17:23:23.526Z,11.23
2023-10-09T17:25:59.507Z,7.45
2023-10-09T17:28:32.466Z,11.77
2023-10-09T17:31:05.468Z,16.15
2023-10-09T17:33:38.173Z,10.70
2023-10-09T17:36:12.915Z,9.23
2023-10-09T17:38:51.151Z,8.32
2023-10-09T17:41:23.980Z,12.73
2023-10-09T17:43:59.269Z,12.75
2023-10-09T17:46:32.198Z,11.23
2023-10-09T17:49:04.929Z,12.40
2023-10-09T17:51:37.791Z,7.68
2023-10-09T17:54:13.503Z,8.07
2023-10-09T17:56:46.229Z,12.10
2023-10-09T17:59:19.396Z,7.68
2023-10-09T18:01:52.216Z,14.32
2023-10-09T18:04:24.851Z,17.98
2023-10-09T18:06:57.546Z,9.00
2023-10-09T18:09:31.461Z,12.25
2023-10-09T18:12:04.684Z,9.18
2023-10-09T18:14:37.738Z,9.75
2023-10-09T18:17:10.652Z,9.95
2023-10-09T18:19:44.326Z,14.25
2023-10-09T18:22:19.036Z,13.48
2023-10-09T18:24:52.065Z,8.30
2023-10-09T18:27:24.760Z,12.45
2023-10-09T18:29:59.034Z,10.25
2023-10-09T18:32:32.113Z,13.07
2023-10-09T18:35:05.761Z,11.98
2023-10-09T18:37:39.857Z,16.55
2023-10-09T18:40:13.511Z,11.52
2023-10-09T18:42:46.245Z,12.95
2023-10-09T18:45:19.716Z,21.17
2023-10-09T18:47:57.715Z,16.02
2023-10-09T18:50:30.909Z,12.10
2023-10-09T18:53:03.825Z,19.15
2023-10-09T18:55:43.279Z,13.10
2023-10-09T18:58:19.605Z,16.85
2023-10-09T19:00:59.689Z,11.52
2023-10-09T19:03:32.485Z,14.98
2023-10-09T19:06:09.536Z,12.68
2023-10-09T19:08:42.240Z,13.00
2023-10-09T19:11:15.140Z,13.20
2023-10-09T19:13:48.167Z,15.52
2023-10-09T19:16:22.386Z,14.63
2023-10-09T19:18:57.417Z,15.48
2023-10-09T19:21:30.950Z,15.88
2023-10-09T19:24:09.606Z,23.02
2023-10-09T19:26:44.967Z,15.95
2023-10-09T19:29:17.877Z,13.57
2023-10-09T19:31:52.137Z,13.30
2023-10-09T19:34:24.992Z,14.75
2023-10-09T19:36:57.814Z,13.00
2023-10-09T19:39:32.742Z,19.10
2023-10-09T19:42:05.629Z,11.90
2023-10-09T19:44:40.479Z,18.75
2023-10-09T19:47:13.122Z,13.52
2023-10-09T19:49:46.499Z,16.58
2023-10-09T19:52:20.514Z,20.45
2023-10-09T19:54:56.918Z,14.70
2023-10-09T19:57:32.323Z,15.30
2023-10-09T20:00:10.941Z,15.57
2023-10-09T20:02:43.712Z,17.13
2023-10-09T20:05:16.756Z,18.00
2023-10-09T20:07:49.772Z,19.33
2023-10-09T20:10:22.517Z,14.85
2023-10-09T20:12:55.770Z,15.90
2023-10-09T20:15:28.490Z,16.15
2023-10-09T20:18:04.797Z,14.50
2023-10-09T20:20:46.325Z,19.35
2023-10-09T20:23:19.082Z,19.48
2023-10-09T20:26:03.201Z,22.27
2023-10-09T20:28:39.006Z,17.73
2023-10-09T20:31:12.510Z,20.63
2023-10-09T20:33:45.703Z,23.42
2023-10-09T20:36:20.358Z,20.67
2023-10-09T20:38:54.342Z,21.33
2023-10-09T20:41:29.004Z,16.63
2023-10-09T20:44:05.652Z,17.63
2023-10-09T20:46:39.534Z,17.85
2023-10-09T20:49:15.802Z,17.65
2023-10-09T20:51:57.464Z,22.20
2023-10-09T20:54:32.416Z,17.00
2023-10-09T20:57:05.083Z,16.65
2023-10-09T20:59:37.721Z,17.23
2023-10-09T21:02:10.588Z,18.48
2023-10-09T21:04:43.497Z,15.88
2023-10-09T21:07:17.053Z,19.58
2023-10-09T21:09:49.650Z,17.58
2023-10-09T21:12:23.306Z,14.80
2023-10-09T21:14:56.539Z,15.98
2023-10-09T21:17:29.312Z,17.65
2023-10-09T21:20:02.050Z,21.50
2023-10-09T21:22:36.063Z,13.65
2023-10-09T21:25:09.377Z,14.35
2023-10-09T21:27:44.727Z,16.65
2023-10-09T21:30:17.535Z,15.63
2023-10-09T21:32:51.768Z,21.65
2023-10-09T21:35:29.306Z,18.83
2023-10-09T21:38:02.292Z,20.95
2023-10-09T21:40:37.518Z,16.38
2023-10-09T21:43:10.566Z,15.32
2023-10-09T21:45:46.135Z,12.70
2023-10-09T21:48:19.112Z,17.90
2023-10-09T21:50:52.059Z,14.38
2023-10-09T21:53:25.033Z,22.38
2023-10-09T21:56:09.200Z,20.98
2023-10-09T21:58:42.302Z,20.75
2023-10-09T22:01:15.697Z,20.08
2023-10-09T22:03:49.738Z,19.05
2023-10-09T22:06:27.091Z,17.55
2023-10-09T22:09:00.433Z,20.42
2023-10-09T22:11:33.112Z,16.75
2023-10-09T22:14:05.916Z,18.50
2023-10-09T22:16:39.529Z,16.92
2023-10-09T22:19:14.910Z,16.50
2023-10-09T22:21:49.004Z,18.45
2023-10-09T22:24:22.016Z,18.05
2023-10-09T22:26:54.718Z,13.98
2023-10-09T22:29:28.834Z,22.10
2023-10-09T22:32:03.148Z,16.83
2023-10-09T22:34:37.924Z,18.42
2023-10-09T22:37:15.963Z,15.93
2023-10-09T22:39:49.141Z,16.67
2023-10-09T22:42:24.043Z,19.17
2023-10-09T22:44:57.369Z,22.00
2023-10-09T22:47:34.243Z,15.48
2023-10-09T22:50:18.711Z,20.85
2023-10-09T22:52:54.194Z,21.17
2023-10-09T22:55:32.711Z,22.40
2023-10-09T22:58:11.007Z,15.77
2023-10-09T23:00:50.037Z,16.95
2023-10-09T23:03:28.932Z,22.42
2023-10-09T23:06:14.927Z,21.00
2023-10-09T23:08:55.790Z,21.02
2023-10-09T23:11:28.909Z,17.80
2023-10-09T23:14:16.674Z,22.83
2023-10-09T23:16:50.086Z,16.75
2023-10-09T23:19:45.953Z,20.75
2023-10-09T23:22:41.219Z,47.45
2023-10-09T23:25:19.413Z,83.70
2023-10-09T23:27:52.167Z,96.63
2023-10-09T23:30:24.766Z,86.75
2023-10-09T23:33:21.949Z,78.25
2023-10-09T23:36:07.041Z,79.80
2023-10-09T23:38:59.700Z,54.08
2023-10-09T23:41:34.099Z,34.83
2023-10-09T23:44:09.075Z,26.20
2023-10-09T23:46:45.147Z,22.13
2023-10-09T23:49:22.055Z,21.55
2023-10-09T23:51:55.475Z,21.35
2023-10-09T23:54:29.298Z,21.17
2023-10-09T23:57:04.874Z,20.30
2023-10-09T23:59:40.564Z,17.45
